LGX87G LIMJ-LIMJ
Flight info
| Callsign | LGX87G |
|---|---|
| Flight time | 0h 21m |
| Altitude | 11000 |
| Route | UNITA |
| Aircraft | B752/M-SDE3FGHIM3RWXY/LB1 |
Departure
| Time | 2026-04-20 19:49 |
|---|---|
| Airport | Genoa Cristoforo Colombo Airport (LIMJ) |
Arrival
| Time | 2026-04-20 20:11 |
|---|---|
| Airport | Genoa Cristoforo Colombo Airport (LIMJ) |
| Time | Latitude | Longitude | Altitude | Speed | Heading |
|---|---|---|---|---|---|
| 2026-04-20 19:22 | 44.41488 | 8.84575 | 25 ft | 0 kts | 323° |
| 2026-04-20 19:41 | 44.41492 | 8.84570 | 24 ft | 1 kts | 318° |
| 2026-04-20 19:41 | 44.41497 | 8.84558 | 24 ft | 1 kts | 282° |
| 2026-04-20 19:42 | 44.41496 | 8.84551 | 24 ft | 0 kts | 256° |
| 2026-04-20 19:42 | 44.41494 | 8.84546 | 24 ft | 1 kts | 249° |
| 2026-04-20 19:42 | 44.41486 | 8.84532 | 23 ft | 1 kts | 220° |
| 2026-04-20 19:42 | 44.41478 | 8.84529 | 23 ft | 1 kts | 180° |
| 2026-04-20 19:43 | 44.41472 | 8.84530 | 23 ft | 1 kts | 160° |
| 2026-04-20 19:43 | 44.41449 | 8.84546 | 24 ft | 4 kts | 153° |
| 2026-04-20 19:43 | 44.41421 | 8.84561 | 24 ft | 3 kts | 179° |
| 2026-04-20 19:43 | 44.41398 | 8.84545 | 23 ft | 5 kts | 210° |
| 2026-04-20 19:44 | 44.41367 | 8.84514 | 23 ft | 5 kts | 228° |
| 2026-04-20 19:44 | 44.41343 | 8.84468 | 23 ft | 6 kts | 236° |
| 2026-04-20 19:44 | 44.41319 | 8.84417 | 23 ft | 6 kts | 236° |
| 2026-04-20 19:44 | 44.41294 | 8.84368 | 23 ft | 6 kts | 233° |
| 2026-04-20 19:45 | 44.41268 | 8.84319 | 23 ft | 6 kts | 232° |
| 2026-04-20 19:45 | 44.41239 | 8.84267 | 22 ft | 6 kts | 233° |
| 2026-04-20 19:45 | 44.41209 | 8.84245 | 22 ft | 4 kts | 172° |
| 2026-04-20 19:45 | 44.41184 | 8.84275 | 22 ft | 6 kts | 122° |
| 2026-04-20 19:46 | 44.41159 | 8.84373 | 23 ft | 16 kts | 106° |
| 2026-04-20 19:46 | 44.41118 | 8.84577 | 23 ft | 27 kts | 105° |
| 2026-04-20 19:46 | 44.41060 | 8.84871 | 24 ft | 32 kts | 105° |
| 2026-04-20 19:46 | 44.41001 | 8.85161 | 24 ft | 30 kts | 104° |
| 2026-04-20 19:47 | 44.40950 | 8.85433 | 25 ft | 27 kts | 105° |
| 2026-04-20 19:47 | 44.40900 | 8.85687 | 25 ft | 25 kts | 105° |
| 2026-04-20 19:47 | 44.40865 | 8.85886 | 25 ft | 12 kts | 90° |
| 2026-04-20 19:47 | 44.40877 | 8.86002 | 25 ft | 11 kts | 80° |
| 2026-04-20 19:48 | 44.40866 | 8.86059 | 25 ft | 2 kts | 165° |
| 2026-04-20 19:48 | 44.40855 | 8.86056 | 25 ft | 1 kts | 212° |
| 2026-04-20 19:48 | 44.40851 | 8.86049 | 25 ft | 0 kts | 240° |
| 2026-04-20 19:48 | 44.40845 | 8.86000 | 25 ft | 14 kts | 272° |
| 2026-04-20 19:49 | 44.40928 | 8.85542 | 25 ft | 84 kts | 284° |
| 2026-04-20 19:49 | 44.41151 | 8.84412 | 24 ft | 152 kts | 284° |
| 2026-04-20 19:49 | 44.41463 | 8.82766 | 232 ft | 189 kts | 282° |
| 2026-04-20 19:49 | 44.41768 | 8.81081 | 1224 ft | 181 kts | 284° |
| 2026-04-20 19:50 | 44.42125 | 8.79349 | 1954 ft | 189 kts | 285° |
| 2026-04-20 19:50 | 44.42137 | 8.77536 | 2477 ft | 195 kts | 248° |
| 2026-04-20 19:50 | 44.41289 | 8.76123 | 3096 ft | 194 kts | 207° |
| 2026-04-20 19:50 | 44.39999 | 8.75834 | 3687 ft | 196 kts | 168° |
| 2026-04-20 19:51 | 44.38772 | 8.76595 | 3995 ft | 194 kts | 152° |
| 2026-04-20 19:51 | 44.37568 | 8.77529 | 4098 ft | 200 kts | 154° |
| 2026-04-20 19:51 | 44.36341 | 8.78469 | 4288 ft | 200 kts | 154° |
| 2026-04-20 19:51 | 44.35106 | 8.79409 | 4445 ft | 202 kts | 155° |
| 2026-04-20 19:52 | 44.33899 | 8.80311 | 4730 ft | 195 kts | 156° |
| 2026-04-20 19:52 | 44.32648 | 8.80932 | 4902 ft | 191 kts | 179° |
| 2026-04-20 19:52 | 44.31313 | 8.80951 | 5032 ft | 192 kts | 183° |
| 2026-04-20 19:52 | 44.29984 | 8.81000 | 5200 ft | 192 kts | 184° |
| 2026-04-20 19:53 | 44.28586 | 8.81000 | 5185 ft | 206 kts | 185° |
| 2026-04-20 19:53 | 44.27106 | 8.80963 | 5168 ft | 220 kts | 185° |
| 2026-04-20 19:53 | 44.25545 | 8.80905 | 5181 ft | 232 kts | 185° |
| 2026-04-20 19:53 | 44.23873 | 8.80827 | 5194 ft | 244 kts | 185° |
| 2026-04-20 19:54 | 44.22149 | 8.80741 | 5322 ft | 250 kts | 186° |
| 2026-04-20 19:54 | 44.20419 | 8.80650 | 5648 ft | 248 kts | 186° |
| 2026-04-20 19:54 | 44.18706 | 8.80552 | 5872 ft | 249 kts | 186° |
| 2026-04-20 19:54 | 44.16970 | 8.80452 | 6139 ft | 249 kts | 187° |
| 2026-04-20 19:55 | 44.15243 | 8.80350 | 6370 ft | 250 kts | 186° |
| 2026-04-20 19:55 | 44.13503 | 8.80631 | 6540 ft | 257 kts | 163° |
| 2026-04-20 19:55 | 44.11950 | 8.81929 | 6731 ft | 264 kts | 143° |
| 2026-04-20 19:55 | 44.10568 | 8.83587 | 7009 ft | 264 kts | 143° |
| 2026-04-20 19:56 | 44.09150 | 8.85240 | 7270 ft | 264 kts | 143° |
| 2026-04-20 19:56 | 44.07752 | 8.86869 | 7497 ft | 265 kts | 143° |
| 2026-04-20 19:56 | 44.06330 | 8.88527 | 7732 ft | 266 kts | 143° |
| 2026-04-20 19:56 | 44.04927 | 8.90161 | 7957 ft | 267 kts | 143° |
| 2026-04-20 19:57 | 44.03500 | 8.91823 | 8179 ft | 267 kts | 143° |
| 2026-04-20 19:57 | 44.02051 | 8.93508 | 8197 ft | 273 kts | 143° |
| 2026-04-20 19:57 | 44.00590 | 8.95207 | 8203 ft | 279 kts | 143° |
| 2026-04-20 19:57 | 43.99084 | 8.96958 | 8205 ft | 284 kts | 143° |
| 2026-04-20 19:58 | 43.97576 | 8.98759 | 8200 ft | 290 kts | 136° |
| 2026-04-20 19:58 | 43.96416 | 9.01122 | 8106 ft | 300 kts | 112° |
| 2026-04-20 19:58 | 43.95994 | 9.03936 | 8002 ft | 304 kts | 89° |
| 2026-04-20 19:58 | 43.96393 | 9.06823 | 7912 ft | 305 kts | 65° |
| 2026-04-20 19:59 | 43.97536 | 9.09209 | 7912 ft | 300 kts | 42° |
| 2026-04-20 19:59 | 43.99112 | 9.11158 | 7914 ft | 301 kts | 41° |
| 2026-04-20 19:59 | 44.00590 | 9.13199 | 7906 ft | 301 kts | 45° |
| 2026-04-20 19:59 | 44.01985 | 9.15353 | 7909 ft | 300 kts | 50° |
| 2026-04-20 20:00 | 44.03289 | 9.17616 | 7901 ft | 299 kts | 50° |
| 2026-04-20 20:00 | 44.04586 | 9.19884 | 7904 ft | 298 kts | 51° |
| 2026-04-20 20:00 | 44.05850 | 9.22142 | 7902 ft | 297 kts | 51° |
| 2026-04-20 20:00 | 44.07117 | 9.24429 | 7903 ft | 296 kts | 51° |
| 2026-04-20 20:01 | 44.08366 | 9.26699 | 7905 ft | 295 kts | 51° |
| 2026-04-20 20:01 | 44.09607 | 9.28959 | 7903 ft | 295 kts | 51° |
| 2026-04-20 20:01 | 44.10851 | 9.31221 | 7906 ft | 294 kts | 51° |
| 2026-04-20 20:01 | 44.12083 | 9.33456 | 7901 ft | 293 kts | 48° |
| 2026-04-20 20:02 | 44.13618 | 9.35271 | 7910 ft | 285 kts | 24° |
| 2026-04-20 20:02 | 44.15470 | 9.36012 | 7918 ft | 276 kts | 358° |
| 2026-04-20 20:02 | 44.17318 | 9.35596 | 7918 ft | 267 kts | 333° |
| 2026-04-20 20:02 | 44.18887 | 9.34300 | 7915 ft | 266 kts | 323° |
| 2026-04-20 20:03 | 44.20429 | 9.32803 | 7901 ft | 267 kts | 322° |
| 2026-04-20 20:03 | 44.21903 | 9.31309 | 7658 ft | 263 kts | 321° |
| 2026-04-20 20:03 | 44.23365 | 9.29782 | 7191 ft | 264 kts | 320° |
| 2026-04-20 20:03 | 44.24825 | 9.28251 | 6787 ft | 262 kts | 320° |
| 2026-04-20 20:04 | 44.26275 | 9.26724 | 6385 ft | 260 kts | 320° |
| 2026-04-20 20:04 | 44.27717 | 9.25201 | 5968 ft | 259 kts | 320° |
| 2026-04-20 20:04 | 44.29142 | 9.23694 | 5511 ft | 260 kts | 321° |
| 2026-04-20 20:04 | 44.30573 | 9.22182 | 5087 ft | 260 kts | 321° |
| 2026-04-20 20:05 | 44.32008 | 9.20664 | 4751 ft | 255 kts | 321° |
| 2026-04-20 20:05 | 44.33239 | 9.19039 | 4682 ft | 236 kts | 297° |
| 2026-04-20 20:05 | 44.33820 | 9.16985 | 4625 ft | 220 kts | 287° |
| 2026-04-20 20:05 | 44.34295 | 9.15019 | 4531 ft | 207 kts | 288° |
| 2026-04-20 20:06 | 44.34748 | 9.13138 | 4270 ft | 203 kts | 287° |
| 2026-04-20 20:06 | 44.35181 | 9.11296 | 4031 ft | 195 kts | 287° |
| 2026-04-20 20:06 | 44.35585 | 9.09548 | 3739 ft | 189 kts | 287° |
| 2026-04-20 20:06 | 44.35979 | 9.07826 | 3459 ft | 183 kts | 287° |
| 2026-04-20 20:07 | 44.36360 | 9.06146 | 3183 ft | 177 kts | 287° |
| 2026-04-20 20:07 | 44.36724 | 9.04533 | 2926 ft | 171 kts | 287° |
| 2026-04-20 20:07 | 44.37071 | 9.02998 | 2680 ft | 165 kts | 287° |
| 2026-04-20 20:07 | 44.37421 | 9.01477 | 2451 ft | 165 kts | 288° |
| 2026-04-20 20:08 | 44.37777 | 8.99947 | 2222 ft | 166 kts | 288° |
| 2026-04-20 20:08 | 44.38125 | 8.98431 | 2016 ft | 163 kts | 286° |
| 2026-04-20 20:08 | 44.38442 | 8.96961 | 1785 ft | 152 kts | 286° |
| 2026-04-20 20:08 | 44.38747 | 8.95593 | 1550 ft | 147 kts | 288° |
| 2026-04-20 20:09 | 44.39182 | 8.94294 | 1343 ft | 151 kts | 302° |
| 2026-04-20 20:09 | 44.39573 | 8.92905 | 1172 ft | 150 kts | 290° |
| 2026-04-20 20:09 | 44.39993 | 8.91571 | 1029 ft | 152 kts | 287° |
| 2026-04-20 20:09 | 44.40161 | 8.90087 | 790 ft | 157 kts | 272° |
| 2026-04-20 20:10 | 44.40302 | 8.88602 | 562 ft | 155 kts | 283° |
| 2026-04-20 20:10 | 44.40602 | 8.87148 | 277 ft | 156 kts | 286° |
| 2026-04-20 20:10 | 44.40896 | 8.85705 | 71 ft | 155 kts | 283° |
| 2026-04-20 20:10 | 44.41149 | 8.84354 | 24 ft | 117 kts | 294° |
| 2026-04-20 20:11 | 44.41328 | 8.83508 | 23 ft | 77 kts | 286° |
| 2026-04-20 20:11 | 44.41383 | 8.83254 | 23 ft | 11 kts | 291° |
| 2026-04-20 20:11 | 44.41398 | 8.83204 | 23 ft | 1 kts | 299° |
| 2026-04-20 20:11 | 44.41401 | 8.83198 | 23 ft | 3 kts | 302° |
| 2026-04-20 20:12 | 44.41436 | 8.83138 | 23 ft | 10 kts | 318° |
| 2026-04-20 20:12 | 44.41486 | 8.83090 | 23 ft | 4 kts | 0° |
| 2026-04-20 20:12 | 44.41507 | 8.83094 | 23 ft | 2 kts | 8° |